Time;durP1;ratioP1;P1;durP2;ratioP2;P2;SDS_P1;SDS_P2;PMS_P1;PMS_P2;Temp;Humidity;BMP_temperature;BMP_pressure;BME280_temperature;BME280_humidity;BME280_pressure;Samples;Min_cycle;Max_cycle;Signal;HPM_P1;HPM_P2
2023/05/18 00:00:01;;;;;;;4.30;2.75;;;410.20;2355.20;;;;;;4963186;29;20027;-85
2023/05/18 00:02:26;;;;;;;5.15;2.80;;;410.20;2355.20;;;;;;4949146;29;20122;-81
2023/05/18 00:04:52;;;;;;;4.47;2.42;;;410.20;2355.20;;;;;;4963312;29;20031;-86
2023/05/18 00:07:18;;;;;;;5.65;3.30;;;410.20;2355.20;;;;;;4963333;29;20030;-82
2023/05/18 00:09:45;;;;;;;8.30;3.67;;;410.20;2355.20;;;;;;4962424;29;20037;-85
2023/05/18 00:12:11;;;;;;;6.63;3.40;;;410.20;2355.20;;;;;;4961284;29;20031;-83
2023/05/18 00:14:37;;;;;;;6.22;3.08;;;410.20;2355.20;;;;;;4953285;29;20040;-84
2023/05/18 00:17:06;;;;;;;5.60;3.60;;;410.20;2355.20;;;;;;4950073;29;20029;-84
2023/05/18 00:19:32;;;;;;;5.90;3.35;;;410.20;2355.20;;;;;;4960635;29;20028;-82
2023/05/18 00:22:01;;;;;;;5.78;3.20;;;410.20;2355.20;;;;;;4960822;29;20430;-82
2023/05/18 00:24:26;;;;;;;7.43;4.07;;;410.20;2355.20;;;;;;4944856;29;20494;-85
2023/05/18 00:26:52;;;;;;;6.00;3.70;;;410.20;2355.20;;;;;;4962251;29;20031;-82
2023/05/18 00:29:18;;;;;;;7.28;3.67;;;410.20;2355.20;;;;;;4944392;29;20118;-82
2023/05/18 00:31:44;;;;;;;6.57;3.50;;;410.10;2355.20;;;;;;4945010;29;20082;-86
2023/05/18 00:34:12;;;;;;;5.95;3.67;;;410.10;2355.20;;;;;;4958393;29;20027;-80
2023/05/18 00:36:39;;;;;;;6.43;3.72;;;410.00;2355.20;;;;;;4959083;29;20027;-85
2023/05/18 00:39:06;;;;;;;5.65;3.38;;;410.10;2355.20;;;;;;4960564;29;20029;-83
2023/05/18 00:41:32;;;;;;;8.85;3.30;;;410.00;2355.20;;;;;;4959765;29;20028;-83
2023/05/18 00:44:03;;;;;;;8.07;3.83;;;410.00;2355.20;;;;;;4962264;29;20032;-85
2023/05/18 00:46:29;;;;;;;5.85;3.83;;;410.00;2355.20;;;;;;4945235;29;20035;-84
2023/05/18 00:48:56;;;;;;;6.47;3.70;;;409.90;2355.20;;;;;;4961753;29;20514;-82
2023/05/18 00:51:23;;;;;;;5.75;3.45;;;410.00;2355.20;;;;;;4960543;29;20027;-86
2023/05/18 00:53:51;;;;;;;8.07;3.30;;;410.00;2355.20;;;;;;4959547;29;20035;-82
2023/05/18 00:56:18;;;;;;;5.65;3.30;;;409.90;2355.20;;;;;;4953076;29;20070;-83
2023/05/18 00:58:44;;;;;;;6.53;3.72;;;410.00;2355.20;;;;;;4961298;28;20027;-83
2023/05/18 01:01:10;;;;;;;5.07;3.40;;;410.00;2355.20;;;;;;4960767;29;20024;-83
2023/05/18 01:03:37;;;;;;;6.82;4.05;;;410.00;2355.20;;;;;;4960415;29;20080;-83
2023/05/18 01:06:08;;;;;;;8.90;4.03;;;410.00;2355.20;;;;;;4960224;29;20034;-84
2023/05/18 01:08:35;;;;;;;6.68;4.10;;;409.90;2355.20;;;;;;4961796;29;20023;-83
2023/05/18 01:11:46;;;;;;;7.72;4.28;;;410.00;2355.20;;;;;;4962052;29;20491;-83
2023/05/18 01:14:41;;;;;;;7.38;5.18;;;410.00;2355.20;;;;;;4935391;29;21185;-83
2023/05/18 01:17:26;;;;;;;5.38;3.78;;;409.80;2355.20;;;;;;4962242;29;20090;-86
2023/05/18 01:20:10;;;;;;;5.85;4.32;;;410.00;2355.20;;;;;;4961998;29;20058;-86
2023/05/18 01:23:05;;;;;;;6.50;4.82;;;410.00;2355.20;;;;;;4962028;29;20090;-81
2023/05/18 01:25:53;;;;;;;6.75;3.90;;;410.00;2355.20;;;;;;4959927;29;20044;-81
2023/05/18 01:28:31;;;;;;;8.93;4.05;;;410.00;2355.20;;;;;;4955057;29;20023;-85
2023/05/18 01:30:57;;;;;;;8.63;4.50;;;410.00;2355.20;;;;;;4937474;29;20063;-84
2023/05/18 01:33:24;;;;;;;6.25;4.30;;;409.70;2355.20;;;;;;4961786;29;20027;-82
2023/05/18 01:35:50;;;;;;;6.10;5.07;;;410.10;2355.20;;;;;;4959121;29;20031;-83
2023/05/18 01:38:22;;;;;;;7.70;4.90;;;384.90;2329.60;;;;;;4962319;29;20032;-84
2023/05/18 01:41:17;;;;;;;6.45;5.15;;;410.00;2355.20;;;;;;4960131;29;20095;-85
2023/05/18 01:44:14;;;;;;;7.70;5.97;;;410.00;2355.20;;;;;;4914532;29;20059;-86
2023/05/18 01:46:49;;;;;;;7.07;5.35;;;410.00;2355.20;;;;;;4943216;29;20122;-86
2023/05/18 01:49:34;;;;;;;7.20;5.30;;;410.00;2355.20;;;;;;4959078;29;20045;-85
2023/05/18 01:52:08;;;;;;;7.68;5.10;;;410.00;2355.20;;;;;;4931210;29;20015;-85
2023/05/18 01:54:45;;;;;;;7.45;5.63;;;410.00;2355.20;;;;;;4939049;29;20039;-86
2023/05/18 01:57:11;;;;;;;7.78;6.18;;;410.20;2355.20;;;;;;4957352;29;20118;-84
2023/05/18 01:59:38;;;;;;;10.35;5.50;;;410.00;2355.20;;;;;;4957751;29;20032;-85
2023/05/18 02:02:05;;;;;;;7.18;5.97;;;410.00;2355.20;;;;;;4943522;29;20039;-83
2023/05/18 02:04:30;;;;;;;8.32;6.10;;;409.90;2355.20;;;;;;4940820;29;20391;-85
2023/05/18 02:06:56;;;;;;;9.05;6.35;;;409.90;2355.20;;;;;;4958324;29;20031;-84
2023/05/18 02:09:22;;;;;;;8.05;6.15;;;409.90;2355.20;;;;;;4961008;28;20042;-86
2023/05/18 02:11:48;;;;;;;8.82;5.57;;;410.00;2355.20;;;;;;4977972;28;20027;-85
2023/05/18 02:14:15;;;;;;;9.27;6.38;;;409.90;2355.20;;;;;;4960611;28;20074;-84
2023/05/18 02:16:41;;;;;;;9.43;5.80;;;409.80;2355.20;;;;;;4938734;29;20075;-86
2023/05/18 02:19:07;;;;;;;8.10;5.28;;;409.90;2355.20;;;;;;4948719;29;20020;-82
2023/05/18 02:21:34;;;;;;;7.82;5.68;;;409.90;2355.20;;;;;;4942585;29;20046;-82
2023/05/18 02:24:00;;;;;;;7.28;5.95;;;409.70;2355.20;;;;;;4942520;29;20457;-85
2023/05/18 02:26:26;;;;;;;6.55;5.72;;;409.80;2355.20;;;;;;4943389;29;20055;-85
2023/05/18 02:28:52;;;;;;;9.00;6.00;;;409.70;2355.20;;;;;;4942806;29;20078;-84
2023/05/18 02:31:18;;;;;;;6.78;5.80;;;409.80;2355.20;;;;;;4958966;29;20051;-85
2023/05/18 02:33:44;;;;;;;10.68;5.93;;;409.70;2355.20;;;;;;4958121;29;20046;-82
2023/05/18 02:36:12;;;;;;;9.52;5.47;;;409.70;2355.20;;;;;;4958590;29;20098;-85
2023/05/18 02:38:40;;;;;;;7.85;5.82;;;409.70;2355.20;;;;;;4958481;29;20034;-82
2023/05/18 02:41:08;;;;;;;8.65;6.43;;;409.70;2355.20;;;;;;4958949;29;20034;-87
2023/05/18 02:43:35;;;;;;;7.60;5.65;;;409.70;2355.20;;;;;;4958232;29;20364;-84
2023/05/18 02:46:01;;;;;;;7.13;5.70;;;409.70;2355.20;;;;;;4958799;29;20055;-84
2023/05/18 02:48:27;;;;;;;8.77;5.80;;;409.70;2355.20;;;;;;4958816;29;20167;-84
2023/05/18 02:50:53;;;;;;;6.90;5.43;;;409.70;2355.20;;;;;;4957796;29;20071;-85
2023/05/18 02:53:20;;;;;;;7.13;5.78;;;409.70;2355.20;;;;;;4958492;29;20031;-84
2023/05/18 02:55:47;;;;;;;6.88;5.53;;;409.70;2355.20;;;;;;4958167;29;20122;-85
2023/05/18 02:58:14;;;;;;;8.38;5.95;;;409.70;2355.20;;;;;;4959284;29;20098;-86
2023/05/18 03:00:40;;;;;;;7.88;5.93;;;410.10;2355.20;;;;;;4958222;29;20027;-86
2023/05/18 03:03:09;;;;;;;6.93;4.97;;;384.90;2329.60;;;;;;4958404;29;20042;-87
2023/05/18 03:05:36;;;;;;;8.10;5.93;;;384.80;2329.60;;;;;;4959497;29;20031;-83
2023/05/18 03:08:02;;;;;;;9.32;5.93;;;384.90;2329.60;;;;;;4960025;29;20387;-84
2023/05/18 03:10:28;;;;;;;8.90;5.53;;;384.90;2329.60;;;;;;4958680;29;20042;-86
2023/05/18 03:12:53;;;;;;;8.85;6.57;;;384.90;2329.60;;;;;;4958625;29;20027;-85
2023/05/18 03:15:20;;;;;;;9.05;5.68;;;384.80;2329.60;;;;;;4959612;29;20031;-85
2023/05/18 03:17:46;;;;;;;7.25;6.10;;;384.90;2329.60;;;;;;4958426;29;20028;-84
2023/05/18 03:20:15;;;;;;;7.05;5.80;;;384.90;2329.60;;;;;;4975644;28;20027;-86
2023/05/18 03:22:41;;;;;;;6.75;5.88;;;384.90;2329.60;;;;;;4962219;29;20031;-85
2023/05/18 03:25:07;;;;;;;6.93;5.95;;;409.60;2355.20;;;;;;4962882;29;20491;-84
2023/05/18 03:27:33;;;;;;;9.63;6.47;;;409.70;2355.20;;;;;;4962470;29;20023;-83
2023/05/18 03:29:59;;;;;;;8.68;6.97;;;409.70;2355.20;;;;;;4962130;29;20051;-86
2023/05/18 03:32:27;;;;;;;10.65;6.85;;;409.60;2355.20;;;;;;4961907;29;20028;-82
2023/05/18 03:34:53;;;;;;;7.60;6.25;;;409.70;2355.20;;;;;;4963193;29;20027;-85
2023/05/18 03:37:20;;;;;;;11.02;6.07;;;410.30;2355.20;;;;;;4962465;29;20078;-85
2023/05/18 03:39:46;;;;;;;8.73;7.05;;;409.70;2355.20;;;;;;4963723;29;20028;-85
2023/05/18 03:42:12;;;;;;;10.55;7.20;;;409.60;2355.20;;;;;;4963383;29;20061;-85
2023/05/18 03:44:38;;;;;;;10.10;7.25;;;409.60;2355.20;;;;;;4962953;29;20042;-86
2023/05/18 03:47:04;;;;;;;9.45;7.20;;;409.60;2355.20;;;;;;4963436;29;20030;-85
2023/05/18 03:49:32;;;;;;;9.18;7.53;;;409.60;2355.20;;;;;;4963097;29;20031;-85
2023/05/18 03:51:58;;;;;;;10.40;8.40;;;409.60;2355.20;;;;;;4962646;29;20042;-83
2023/05/18 03:54:24;;;;;;;9.98;7.47;;;384.90;2329.60;;;;;;4962452;29;20468;-83
2023/05/18 03:56:50;;;;;;;10.93;7.07;;;384.90;2329.60;;;;;;4946950;29;20043;-82
2023/05/18 03:59:16;;;;;;;9.80;7.43;;;384.90;2329.60;;;;;;4962212;28;20030;-86
2023/05/18 04:01:43;;;;;;;10.13;7.25;;;384.90;2329.60;;;;;;4950770;29;20034;-82
2023/05/18 04:04:16;;;;;;;9.35;6.55;;;384.90;2329.60;;;;;;4962080;29;20490;-83
2023/05/18 04:06:45;;;;;;;8.02;6.70;;;384.80;2329.60;;;;;;4962188;29;20063;-86
2023/05/18 04:09:13;;;;;;;9.38;6.93;;;384.70;2329.60;;;;;;4963558;29;20482;-86
2023/05/18 04:11:40;;;;;;;8.30;7.18;;;409.70;2355.20;;;;;;4961517;29;20372;-85
2023/05/18 04:14:10;;;;;;;8.00;6.63;;;384.80;2329.60;;;;;;4961327;29;20023;-84
2023/05/18 04:16:35;;;;;;;7.95;6.78;;;384.90;2329.60;;;;;;4961597;29;20019;-87
2023/05/18 04:19:02;;;;;;;7.85;6.78;;;384.80;2329.60;;;;;;4962059;29;20094;-87
2023/05/18 04:21:34;;;;;;;7.80;6.72;;;384.90;2329.60;;;;;;4961067;29;20016;-84
2023/05/18 04:24:04;;;;;;;12.18;7.97;;;384.80;2329.60;;;;;;4961269;29;20387;-84
2023/05/18 04:26:30;;;;;;;11.43;6.78;;;384.90;2329.60;;;;;;4961310;29;20035;-85
2023/05/18 04:28:59;;;;;;;10.35;6.57;;;384.90;2329.60;;;;;;4978151;28;20035;-85
2023/05/18 04:31:28;;;;;;;8.73;7.22;;;384.90;2329.60;;;;;;4945101;29;20480;-84
2023/05/18 04:33:59;;;;;;;7.28;6.45;;;384.90;2329.60;;;;;;4960656;29;20038;-84
2023/05/18 04:36:29;;;;;;;9.68;6.50;;;409.60;2355.20;;;;;;4961239;29;20082;-84
2023/05/18 04:38:57;;;;;;;11.05;6.38;;;384.90;2329.60;;;;;;4945693;29;20024;-83
2023/05/18 04:41:24;;;;;;;8.57;5.93;;;384.90;2329.60;;;;;;4961493;29;20027;-85
2023/05/18 04:43:51;;;;;;;9.30;6.13;;;384.90;2329.60;;;;;;4942704;29;20036;-85
2023/05/18 04:46:17;;;;;;;8.05;6.63;;;409.60;2355.20;;;;;;4926682;29;20031;-84
2023/05/18 04:48:43;;;;;;;7.45;6.22;;;384.90;2329.60;;;;;;4943320;29;20090;-84
2023/05/18 04:51:09;;;;;;;8.48;6.32;;;384.90;2329.60;;;;;;4961528;29;20467;-82
2023/05/18 04:53:37;;;;;;;6.57;5.35;;;384.90;2329.60;;;;;;4961300;29;20122;-86
2023/05/18 04:56:03;;;;;;;8.27;5.18;;;384.90;2329.60;;;;;;4944978;29;20031;-85
2023/05/18 04:58:30;;;;;;;8.80;6.95;;;384.90;2329.60;;;;;;4945017;29;20027;-83
2023/05/18 05:00:56;;;;;;;6.82;5.43;;;384.90;2329.60;;;;;;4952673;29;20027;-85
2023/05/18 05:03:22;;;;;;;7.28;6.13;;;384.90;2329.60;;;;;;4926218;29;20028;-85
2023/05/18 05:05:48;;;;;;;7.95;5.40;;;384.90;2329.60;;;;;;4936407;29;20050;-85
2023/05/18 05:08:15;;;;;;;8.10;5.28;;;384.80;2329.60;;;;;;4960779;29;20114;-87
2023/05/18 05:10:41;;;;;;;8.05;5.28;;;384.90;2329.60;;;;;;4960791;29;20023;-85
2023/05/18 05:13:08;;;;;;;9.00;5.10;;;384.90;2329.60;;;;;;4960866;29;20030;-84
2023/05/18 05:15:35;;;;;;;8.00;5.47;;;384.80;2329.60;;;;;;4961136;29;20063;-85
2023/05/18 05:18:01;;;;;;;6.55;5.40;;;384.90;2329.60;;;;;;4960974;29;20467;-86
2023/05/18 05:20:27;;;;;;;7.18;5.53;;;384.90;2329.60;;;;;;4961323;29;20054;-85
2023/05/18 05:22:53;;;;;;;8.02;5.35;;;384.90;2329.60;;;;;;4961302;29;20117;-87
2023/05/18 05:25:20;;;;;;;8.38;5.63;;;384.90;2329.60;;;;;;4926615;29;20098;-87
2023/05/18 05:27:46;;;;;;;9.70;5.90;;;384.90;2329.60;;;;;;4948124;29;20058;-85
2023/05/18 05:30:12;;;;;;;6.93;5.38;;;384.80;2329.60;;;;;;4960576;29;20110;-85
2023/05/18 05:32:38;;;;;;;8.95;6.45;;;384.70;2329.60;;;;;;4920825;29;20095;-85
2023/05/18 05:35:04;;;;;;;8.23;6.68;;;384.70;2329.60;;;;;;4921539;29;20032;-85
2023/05/18 05:37:30;;;;;;;8.77;6.93;;;384.70;2329.60;;;;;;4921381;29;20123;-85
2023/05/18 05:39:56;;;;;;;8.60;6.15;;;384.70;2329.60;;;;;;4921433;29;20028;-85
2023/05/18 05:42:22;;;;;;;7.22;6.30;;;384.70;2329.60;;;;;;4921164;29;20036;-85
2023/05/18 05:44:48;;;;;;;7.75;5.30;;;384.70;2329.60;;;;;;4926271;29;20036;-83
2023/05/18 05:47:14;;;;;;;7.82;5.80;;;384.70;2329.60;;;;;;4940446;29;20195;-84
2023/05/18 05:49:40;;;;;;;10.48;7.05;;;384.70;2329.60;;;;;;4927747;29;20028;-85
2023/05/18 05:52:06;;;;;;;9.13;6.35;;;384.70;2329.60;;;;;;4920878;29;20036;-86
2023/05/18 05:54:32;;;;;;;9.85;8.07;;;384.70;2329.60;;;;;;4920304;29;20072;-88
2023/05/18 05:56:58;;;;;;;14.25;9.45;;;384.70;2329.60;;;;;;4921831;29;20036;-85
2023/05/18 05:59:24;;;;;;;17.10;9.95;;;384.70;2329.60;;;;;;4921085;29;20036;-86
2023/05/18 06:01:50;;;;;;;19.42;13.07;;;384.70;2329.60;;;;;;4921799;29;20032;-87
2023/05/18 06:04:16;;;;;;;23.23;16.65;;;384.70;2329.60;;;;;;4950140;29;20043;-85
2023/05/18 06:06:42;;;;;;;15.88;11.15;;;384.70;2329.60;;;;;;4943652;29;20031;-86
2023/05/18 06:09:09;;;;;;;12.10;9.60;;;384.70;2329.60;;;;;;4944212;29;20063;-86
2023/05/18 06:11:35;;;;;;;10.23;8.65;;;384.70;2329.60;;;;;;4960035;29;20027;-83
2023/05/18 06:14:01;;;;;;;9.30;6.97;;;384.70;2329.60;;;;;;4960185;29;20041;-85
2023/05/18 06:16:27;;;;;;;8.85;6.45;;;384.70;2329.60;;;;;;4959594;29;20027;-84
2023/05/18 06:18:52;;;;;;;7.53;5.22;;;384.60;2329.60;;;;;;4920464;29;20043;-84
2023/05/18 06:21:18;;;;;;;8.85;6.47;;;384.60;2329.60;;;;;;4920398;29;20028;-84
2023/05/18 06:23:44;;;;;;;7.28;5.90;;;384.60;2329.60;;;;;;4904912;29;20036;-86
2023/05/18 06:26:10;;;;;;;8.82;5.30;;;384.50;2329.60;;;;;;4905321;29;20085;-83
2023/05/18 06:28:36;;;;;;;8.02;6.35;;;384.50;2329.60;;;;;;4905155;29;20051;-83
2023/05/18 06:31:04;;;;;;;9.15;6.88;;;384.50;2329.60;;;;;;4921233;29;20170;-84
2023/05/18 06:33:32;;;;;;;7.82;6.20;;;384.00;2329.60;;;;;;4920782;29;20091;-85
2023/05/18 06:35:59;;;;;;;12.07;8.77;;;384.40;2329.60;;;;;;4905207;29;20028;-83
2023/05/18 06:38:25;;;;;;;13.98;9.63;;;384.40;2329.60;;;;;;4903875;29;20531;-85
2023/05/18 06:40:51;;;;;;;13.15;9.45;;;384.50;2329.60;;;;;;4905005;29;20024;-86
2023/05/18 06:43:17;;;;;;;12.65;9.75;;;384.50;2329.60;;;;;;4905207;29;20032;-87
2023/05/18 06:45:42;;;;;;;11.38;8.35;;;384.50;2329.60;;;;;;4905001;29;20029;-83
2023/05/18 06:48:08;;;;;;;20.30;12.48;;;384.50;2329.60;;;;;;4904965;29;20118;-82
2023/05/18 06:50:34;;;;;;;54.50;35.90;;;384.60;2329.60;;;;;;4935412;29;20094;-85
2023/05/18 06:53:03;;;;;;;42.15;28.38;;;384.60;2329.60;;;;;;4961724;29;20094;-85
2023/05/18 06:55:29;;;;;;;47.42;32.28;;;384.60;2329.60;;;;;;4944843;29;20023;-86
2023/05/18 06:57:57;;;;;;;39.42;29.00;;;384.60;2329.60;;;;;;4964299;29;20054;-86
2023/05/18 07:00:23;;;;;;;42.15;34.22;;;384.60;2329.60;;;;;;4962920;29;20023;-85
2023/05/18 07:02:49;;;;;;;16.20;14.48;;;384.70;2329.60;;;;;;4949274;29;20035;-86
2023/05/18 07:05:16;;;;;;;14.15;12.23;;;384.70;2329.60;;;;;;4963336;28;20061;-84
2023/05/18 07:07:42;;;;;;;13.93;11.98;;;384.70;2329.60;;;;;;4967161;28;20046;-85
2023/05/18 07:10:08;;;;;;;12.60;10.90;;;384.60;2329.60;;;;;;4947723;29;20059;-86
2023/05/18 07:12:34;;;;;;;12.93;11.60;;;410.00;2355.20;;;;;;4946888;29;20027;-86
2023/05/18 07:15:00;;;;;;;10.65;9.55;;;384.70;2329.60;;;;;;4963569;29;20027;-84
2023/05/18 07:17:26;;;;;;;9.70;7.95;;;384.70;2329.60;;;;;;4955025;29;20034;-84
2023/05/18 07:19:52;;;;;;;9.95;7.70;;;384.70;2329.60;;;;;;4962929;29;20468;-85
2023/05/18 07:22:18;;;;;;;10.55;7.13;;;384.70;2329.60;;;;;;4956619;29;20130;-83
2023/05/18 07:24:43;;;;;;;7.10;6.10;;;384.70;2329.60;;;;;;4963086;29;20046;-83
2023/05/18 07:27:09;;;;;;;9.35;5.88;;;384.90;2329.60;;;;;;4958994;29;20027;-84
2023/05/18 07:29:36;;;;;;;9.77;7.72;;;384.90;2329.60;;;;;;4944315;29;20048;-82
2023/05/18 07:32:02;;;;;;;7.78;5.78;;;384.90;2329.60;;;;;;4947648;29;20026;-85
2023/05/18 07:34:28;;;;;;;7.88;6.63;;;409.60;2355.20;;;;;;4962696;29;20031;-85
2023/05/18 07:36:53;;;;;;;7.53;6.10;;;409.70;2355.20;;;;;;4961661;29;20039;-82
2023/05/18 07:39:27;;;;;;;8.88;5.75;;;409.80;2355.20;;;;;;4945729;29;20115;-85
2023/05/18 07:41:53;;;;;;;8.18;6.05;;;409.70;2355.20;;;;;;4945813;29;20114;-86
2023/05/18 07:44:19;;;;;;;8.98;6.38;;;409.90;2355.20;;;;;;4945420;29;20031;-82
2023/05/18 07:46:45;;;;;;;9.95;6.82;;;409.90;2355.20;;;;;;4944715;29;20038;-84
2023/05/18 07:49:11;;;;;;;9.73;6.78;;;410.00;2355.20;;;;;;4962072;29;20092;-86
2023/05/18 07:51:37;;;;;;;9.82;7.13;;;409.90;2355.20;;;;;;4962837;29;20112;-86
2023/05/18 07:54:04;;;;;;;8.05;6.13;;;410.00;2355.20;;;;;;4962008;29;20057;-86
2023/05/18 07:56:30;;;;;;;8.02;6.30;;;410.00;2355.20;;;;;;4947217;29;20035;-84
2023/05/18 07:58:56;;;;;;;9.32;6.72;;;410.20;2355.20;;;;;;4946431;29;20031;-85
2023/05/18 08:01:26;;;;;;;10.05;8.10;;;410.30;2355.20;;;;;;4946346;29;20035;-83
2023/05/18 08:03:53;;;;;;;12.02;10.70;;;410.30;2355.20;;;;;;4961328;29;20078;-84
2023/05/18 08:06:20;;;;;;;12.23;10.18;;;410.50;2355.20;;;;;;4961421;28;20031;-83
2023/05/18 08:08:46;;;;;;;14.32;12.93;;;410.50;2355.20;;;;;;4945604;29;20027;-83
2023/05/18 08:11:12;;;;;;;9.30;6.60;;;410.50;2355.20;;;;;;4945430;29;20054;-84
2023/05/18 08:13:37;;;;;;;7.22;5.82;;;410.50;2355.20;;;;;;4945003;29;20038;-84
2023/05/18 08:16:04;;;;;;;6.10;5.40;;;410.50;2355.20;;;;;;4961747;29;20031;-85
2023/05/18 08:18:30;;;;;;;6.78;6.05;;;410.40;2355.20;;;;;;4960943;29;20029;-85
2023/05/18 08:20:55;;;;;;;8.02;6.30;;;410.40;2355.20;;;;;;4978723;28;20038;-85
2023/05/18 08:23:23;;;;;;;9.13;6.68;;;410.40;2355.20;;;;;;4961064;29;20031;-84
2023/05/18 08:25:49;;;;;;;8.68;6.85;;;410.50;2355.20;;;;;;4961269;29;20035;-83
2023/05/18 08:28:15;;;;;;;8.75;7.82;;;410.50;2355.20;;;;;;4960953;29;20027;-85
2023/05/18 08:30:41;;;;;;;13.40;7.93;;;435.20;2355.20;;;;;;4961678;29;20115;-82
2023/05/18 08:33:08;;;;;;;7.85;7.03;;;410.50;2355.20;;;;;;4961370;29;20058;-85
2023/05/18 08:35:34;;;;;;;9.35;6.97;;;435.20;2355.20;;;;;;4961620;29;20035;-85
2023/05/18 08:38:00;;;;;;;7.20;6.50;;;435.20;2355.20;;;;;;4961315;29;20482;-84
2023/05/18 08:40:35;;;;;;;8.35;6.88;;;435.30;2355.20;;;;;;4961283;29;20023;-83
2023/05/18 08:43:17;;;;;;;10.45;8.10;;;435.30;2355.20;;;;;;4961645;29;20042;-83
2023/05/18 08:46:20;;;;;;;8.63;7.72;;;435.30;2355.20;;;;;;4961783;29;20042;-85
2023/05/18 08:48:50;;;;;;;8.75;7.57;;;410.50;2355.20;;;;;;4886593;29;20037;-85
2023/05/18 08:51:19;;;;;;;9.10;7.38;;;410.50;2355.20;;;;;;4869888;29;20037;-84
2023/05/18 08:53:53;;;;;;;8.48;6.85;;;410.50;2355.20;;;;;;4871055;29;20037;-86
2023/05/18 08:56:22;;;;;;;10.63;7.65;;;410.50;2355.20;;;;;;4869795;29;20053;-82
2023/05/18 08:58:51;;;;;;;10.48;8.75;;;410.50;2355.20;;;;;;4868794;29;20052;-86
2023/05/18 09:01:17;;;;;;;9.43;8.40;;;410.40;2355.20;;;;;;4870817;29;20566;-82
2023/05/18 09:03:48;;;;;;;8.05;5.40;;;410.40;2355.20;;;;;;4886958;29;20033;-84
2023/05/18 09:06:14;;;;;;;8.25;4.38;;;410.30;2355.20;;;;;;4886646;29;20119;-82
2023/05/18 09:08:41;;;;;;;9.23;7.47;;;410.20;2355.20;;;;;;4886718;29;20028;-85
2023/05/18 09:11:07;;;;;;;9.10;6.00;;;410.20;2355.20;;;;;;4887782;29;20037;-85
2023/05/18 09:13:33;;;;;;;6.47;5.13;;;410.20;2355.20;;;;;;4868672;29;20021;-83
2023/05/18 09:15:59;;;;;;;7.28;5.70;;;410.20;2355.20;;;;;;4868591;29;20028;-84
2023/05/18 09:18:25;;;;;;;5.90;4.00;;;410.20;2355.20;;;;;;4868646;29;20033;-86
2023/05/18 09:20:51;;;;;;;7.32;4.93;;;410.30;2355.20;;;;;;4869769;29;20497;-85
2023/05/18 09:23:17;;;;;;;7.57;4.78;;;410.20;2355.20;;;;;;4876863;29;20537;-86
2023/05/18 09:25:44;;;;;;;7.63;5.00;;;410.20;2355.20;;;;;;4962052;29;20027;-85
2023/05/18 09:28:24;;;;;;;6.65;4.10;;;410.30;2355.20;;;;;;4966914;28;20034;-85
2023/05/18 09:30:52;;;;;;;6.32;3.70;;;410.30;2355.20;;;;;;4944876;29;20058;-82
2023/05/18 09:33:20;;;;;;;6.10;3.70;;;410.40;2355.20;;;;;;4945271;29;20035;-84
2023/05/18 09:35:47;;;;;;;5.97;3.42;;;410.40;2355.20;;;;;;4944576;29;20031;-85
2023/05/18 09:38:20;;;;;;;5.03;3.55;;;410.50;2355.20;;;;;;4959628;29;20086;-86
2023/05/18 09:40:49;;;;;;;4.47;3.28;;;410.50;2355.20;;;;;;4961465;29;20019;-83
2023/05/18 09:43:19;;;;;;;3.97;2.47;;;410.40;2355.20;;;;;;4961460;29;20431;-84
2023/05/18 09:45:49;;;;;;;7.95;2.80;;;410.30;2355.20;;;;;;4957790;29;20024;-84
2023/05/18 09:48:15;;;;;;;4.80;2.90;;;410.20;2355.20;;;;;;4942980;29;20028;-85
2023/05/18 09:50:45;;;;;;;3.70;2.63;;;410.20;2355.20;;;;;;4951752;29;20027;-83
2023/05/18 09:53:12;;;;;;;4.28;2.80;;;410.10;2355.20;;;;;;4961045;29;20089;-85
2023/05/18 09:55:48;;;;;;;4.93;3.60;;;410.10;2355.20;;;;;;4960093;29;20031;-83
2023/05/18 09:58:14;;;;;;;4.35;2.83;;;410.20;2355.20;;;;;;4944441;29;20058;-84
2023/05/18 10:00:42;;;;;;;4.18;2.58;;;410.20;2355.20;;;;;;4942938;29;20034;-83
2023/05/18 10:03:19;;;;;;;6.00;3.47;;;410.20;2355.20;;;;;;4944527;29;20395;-85
2023/05/18 10:05:46;;;;;;;5.10;3.78;;;410.20;2355.20;;;;;;4943721;29;20463;-83
2023/05/18 10:08:16;;;;;;;4.18;3.00;;;409.60;2355.20;;;;;;4960724;29;20038;-85
2023/05/18 10:10:45;;;;;;;4.60;2.63;;;410.00;2355.20;;;;;;4960009;29;20029;-84
2023/05/18 10:13:19;;;;;;;5.25;2.25;;;410.00;2355.20;;;;;;4959292;29;20048;-85
2023/05/18 10:15:55;;;;;;;6.15;2.50;;;410.10;2355.20;;;;;;4959457;29;20027;-86
2023/05/18 10:18:33;;;;;;;5.15;2.65;;;410.20;2355.20;;;;;;4958976;29;20103;-84
2023/05/18 10:21:00;;;;;;;4.20;2.40;;;410.30;2355.20;;;;;;4943407;29;20046;-84
2023/05/18 10:23:31;;;;;;;3.55;1.85;;;410.30;2355.20;;;;;;4959075;29;20031;-85
2023/05/18 10:25:58;;;;;;;5.70;3.20;;;410.30;2355.20;;;;;;4960226;29;20082;-85
2023/05/18 10:28:31;;;;;;;5.97;2.50;;;409.70;2355.20;;;;;;4943062;29;20039;-87
2023/05/18 10:30:59;;;;;;;4.07;2.08;;;410.50;2355.20;;;;;;4943451;29;20085;-84
2023/05/18 10:33:27;;;;;;;5.32;2.38;;;435.20;2355.20;;;;;;4942733;29;20035;-85
2023/05/18 10:35:54;;;;;;;5.68;2.50;;;435.30;2355.20;;;;;;4960569;29;20063;-86
2023/05/18 10:38:45;;;;;;;4.18;2.45;;;435.40;2355.20;;;;;;4924941;29;20040;-86
2023/05/18 10:41:54;;;;;;;3.97;2.53;;;435.50;2355.20;;;;;;4915058;29;20084;-88
2023/05/18 10:44:25;;;;;;;3.38;2.08;;;435.40;2355.20;;;;;;4894492;29;20047;-84
2023/05/18 10:47:00;;;;;;;10.15;4.03;;;435.50;2355.20;;;;;;4940910;29;20035;-85
2023/05/18 10:49:27;;;;;;;3.78;2.70;;;435.60;2355.20;;;;;;4894446;29;20147;-83
2023/05/18 10:51:56;;;;;;;5.53;2.35;;;435.60;2355.20;;;;;;4942428;29;20098;-85
2023/05/18 10:54:22;;;;;;;4.20;2.50;;;435.50;2355.20;;;;;;4941625;29;20040;-86
2023/05/18 10:56:51;;;;;;;5.97;3.10;;;435.60;2355.20;;;;;;4941662;29;20039;-84
2023/05/18 10:59:19;;;;;;;6.65;3.40;;;435.70;2355.20;;;;;;4940927;29;20036;-84
2023/05/18 11:01:48;;;;;;;5.38;3.78;;;435.80;2355.20;;;;;;4941682;29;20027;-85
2023/05/18 11:04:14;;;;;;;8.15;5.10;;;435.70;2355.20;;;;;;4949105;29;20047;-86
2023/05/18 11:06:40;;;;;;;6.82;4.78;;;435.80;2355.20;;;;;;4959798;29;20034;-87
2023/05/18 11:09:06;;;;;;;8.10;6.60;;;435.70;2355.20;;;;;;4954585;29;20424;-83
2023/05/18 11:11:52;;;;;;;7.45;5.55;;;435.70;2355.20;;;;;;4959148;29;20032;-81
2023/05/18 11:14:27;;;;;;;7.25;5.70;;;435.60;2355.20;;;;;;4961614;29;20037;-85
2023/05/18 11:16:53;;;;;;;7.38;6.30;;;435.50;2355.20;;;;;;4960472;29;20031;-83
2023/05/18 11:19:25;;;;;;;9.63;7.28;;;435.50;2355.20;;;;;;4959777;29;20447;-86
2023/05/18 11:21:52;;;;;;;;;;;435.40;2355.20;;;;;;4944475;29;20034;-85
2023/05/18 11:24:32;;;;;;;8.65;7.75;;;435.30;2355.20;;;;;;4961009;29;19914;-87
2023/05/18 11:27:13;;;;;;;12.27;7.60;;;435.30;2355.20;;;;;;4944925;29;20032;-83
2023/05/18 11:29:43;;;;;;;8.98;8.02;;;435.30;2355.20;;;;;;4942749;29;20078;-84
2023/05/18 11:32:30;;;;;;;9.02;8.05;;;435.30;2355.20;;;;;;4959731;29;20056;-88
2023/05/18 11:34:57;;;;;;;9.18;7.30;;;435.30;2355.20;;;;;;4959681;29;20032;-87
2023/05/18 11:37:38;;;;;;;7.95;7.07;;;410.50;2355.20;;;;;;4959457;29;20027;-84
2023/05/18 11:40:42;;;;;;;13.02;8.50;;;410.40;2355.20;;;;;;4960520;29;20035;-85
2023/05/18 11:43:09;;;;;;;8.55;7.45;;;410.20;2355.20;;;;;;4962080;28;20051;-86
2023/05/18 11:45:50;;;;;;;8.07;6.82;;;410.20;2355.20;;;;;;4962020;29;20024;-82
2023/05/18 11:48:20;;;;;;;8.23;6.55;;;410.10;2355.20;;;;;;4945043;29;20039;-81
2023/05/18 11:50:46;;;;;;;15.10;6.80;;;410.00;2355.20;;;;;;4922478;29;20047;-83
2023/05/18 11:53:15;;;;;;;8.60;6.45;;;410.00;2355.20;;;;;;4906856;29;20036;-84
2023/05/18 11:55:41;;;;;;;13.32;6.80;;;410.00;2355.20;;;;;;4907475;29;20044;-83
2023/05/18 11:58:09;;;;;;;9.02;7.15;;;410.00;2355.20;;;;;;4907744;29;20058;-83
2023/05/18 12:00:38;;;;;;;10.85;7.22;;;410.00;2355.20;;;;;;4919098;29;20040;-83
2023/05/18 12:03:05;;;;;;;6.65;5.45;;;410.00;2355.20;;;;;;4908045;29;20382;-83
2023/05/18 12:05:34;;;;;;;7.78;5.18;;;410.00;2355.20;;;;;;4908025;29;20036;-82
2023/05/18 12:08:33;;;;;;;7.28;4.93;;;410.00;2355.20;;;;;;4907417;29;20115;-87
2023/05/18 12:11:05;;;;;;;5.60;4.47;;;410.00;2355.20;;;;;;4908612;29;20066;-85
2023/05/18 12:13:32;;;;;;;6.60;5.15;;;409.90;2355.20;;;;;;4884896;29;20100;-87
2023/05/18 12:16:03;;;;;;;7.30;5.82;;;409.90;2355.20;;;;;;4910416;29;20115;-87
2023/05/18 12:18:34;;;;;;;8.13;6.25;;;409.90;2355.20;;;;;;4924665;29;20024;-86
2023/05/18 12:21:09;;;;;;;8.10;6.53;;;409.90;2355.20;;;;;;4931249;29;20040;-88
2023/05/18 12:24:38;;;;;;;6.43;5.55;;;409.90;2355.20;;;;;;4961116;29;20027;-86